KDEN/DEN METAR and TAF weather

Enter ICAO airport designator
Station Type Date Time Source
KDEN METAR 2021/03/07 22:53 UTC NOAA

KDEN 072253Z 15015G23KT 10SM FEW120 BKN180 BKN220 21/M09 A3004 RMK AO2 SLP129 T02061094


Station Type Date Time Source
KDEN Decoded METAR 2021/03/07 22:53 UTC NOAA

DENVER INTERNATIONAL AIRPORT, CO, United States (KDEN) 39-52N 104-40W 1640M
Mar 07, 2021 - 05:53 PM EST / 2021.03.07 2253 UTC
Wind: from the SSE (150 degrees) at 17 MPH (15 KT) gusting to 26 MPH (23 KT):0
Visibility: 10 mile(s):0
Sky conditions: mostly cloudy
Temperature: 69.1 F (20.6 C)
Dew Point: 15.1 F (-9.4 C)
Relative Humidity: 12%
Pressure (altimeter): 30.04 in. Hg (1017 hPa)
ob: KDEN 072253Z 15015G23KT 10SM FEW120 BKN180 BKN220 21/M09 A3004 RMK AO2 SLP129 T02061094
cycle: 23

Station Type Date Time Source
KDEN TAF 2021/03/07 21:33 UTC NOAA

TAF
AMD KDEN 072030Z 0721/0824 17010KT P6SM SCT220
FM080300 19010KT P6SM SCT220
FM081600 24008KT P6SM BKN180
FM082100 25012KT P6SM BKN180

Example: see airport list